createdAt,value
2023-06-27T00:00:32.803Z,47.28027
2023-06-27T00:01:32.884Z,47.52637
2023-06-27T00:02:33.887Z,47.23633
2023-06-27T00:03:32.838Z,47.63086
2023-06-27T00:04:33.824Z,47.24512
2023-06-27T00:05:32.804Z,47.49707
2023-06-27T00:06:36.196Z,47.44043
2023-06-27T00:07:33.953Z,47.38184
2023-06-27T00:08:32.813Z,47.60156
2023-06-27T00:09:33.864Z,47.39063
2023-06-27T00:10:32.910Z,47.24707
2023-06-27T00:11:33.824Z,47.47852
2023-06-27T00:12:33.864Z,47.43359
2023-06-27T00:13:32.845Z,47.4209
2023-06-27T00:14:33.881Z,47.5791
2023-06-27T00:15:32.884Z,47.21582
2023-06-27T00:16:33.898Z,47.49512
2023-06-27T00:17:33.917Z,47.65723
2023-06-27T00:18:32.850Z,47.37988
2023-06-27T00:19:33.880Z,47.42383
2023-06-27T00:20:32.889Z,47.65723
2023-06-27T00:21:33.905Z,48.03809
2023-06-27T00:22:33.896Z,47.37598
2023-06-27T00:23:33.884Z,47.85059
2023-06-27T00:24:32.901Z,47.90625
2023-06-27T00:25:32.909Z,47.74512
2023-06-27T00:26:33.842Z,47.88184
2023-06-27T00:27:33.868Z,48.42871
2023-06-27T00:28:33.895Z,48.22852
2023-06-27T00:29:32.916Z,48.20508
2023-06-27T00:30:32.947Z,48.44824
2023-06-27T00:31:36.726Z,48.36523
2023-06-27T00:32:33.947Z,48.41113
2023-06-27T00:33:33.882Z,48.31641
2023-06-27T00:34:32.925Z,48.36426
2023-06-27T00:35:40.642Z,48.24414
2023-06-27T00:36:32.882Z,48.64258
2023-06-27T00:37:33.938Z,48.73633
2023-06-27T00:38:33.931Z,48.1875
2023-06-27T00:39:32.891Z,48.88281
2023-06-27T00:40:33.929Z,48.49902
2023-06-27T00:41:32.938Z,48.96289
2023-06-27T00:42:33.902Z,48.99512
2023-06-27T00:43:33.948Z,49.08789
2023-06-27T00:44:32.944Z,48.76074
2023-06-27T00:45:33.950Z,48.17969
2023-06-27T00:46:32.951Z,48.32813
2023-06-27T00:47:33.970Z,48.81152
2023-06-27T00:48:33.894Z,48.91602
2023-06-27T00:49:32.947Z,49.15137
2023-06-27T00:50:33.951Z,48.51074
2023-06-27T00:51:32.958Z,48.20801
2023-06-27T00:52:33.914Z,48.60156
2023-06-27T00:53:32.961Z,48.90137
2023-06-27T00:54:32.961Z,48.75391
2023-06-27T00:55:33.962Z,48.35156
2023-06-27T00:56:32.937Z,48.56152
2023-06-27T00:57:33.941Z,48.11133
2023-06-27T00:58:32.967Z,48.14551
2023-06-27T00:59:32.976Z,48.14746
2023-06-27T01:00:34.024Z,48.30762
2023-06-27T01:01:32.947Z,48.17773
2023-06-27T01:02:34.025Z,48.6875
2023-06-27T01:03:33.013Z,48.68555
2023-06-27T01:04:40.518Z,48.3252
2023-06-27T01:05:32.994Z,48.32715
2023-06-27T01:06:32.952Z,48.70996
2023-06-27T01:07:33.997Z,48.51367
2023-06-27T01:08:33.008Z,48.39551
2023-06-27T01:09:35.565Z,48.71777
2023-06-27T01:10:32.963Z,48.22949
2023-06-27T01:11:33.000Z,48.19727
2023-06-27T01:12:34.015Z,48.29102
2023-06-27T01:13:33.037Z,48.19531
2023-06-27T01:14:34.034Z,48.21582
2023-06-27T01:15:33.017Z,48.22559
2023-06-27T01:16:33.030Z,48.76953
2023-06-27T01:17:34.044Z,48.31836
2023-06-27T01:18:32.986Z,48.73535
2023-06-27T01:19:34.070Z,48.29492
2023-06-27T01:20:32.987Z,48.67871
2023-06-27T01:21:35.436Z,48.09961
2023-06-27T01:22:34.030Z,48.21582
2023-06-27T01:23:33.036Z,48.5498
2023-06-27T01:24:34.075Z,48.32617
2023-06-27T01:25:33.037Z,48.39551
2023-06-27T01:26:33.984Z,48.2793
2023-06-27T01:27:42.898Z,48.26953
2023-06-27T01:28:33.052Z,48.08301
2023-06-27T01:29:34.098Z,48.51367
2023-06-27T01:30:33.010Z,48.19922
2023-06-27T01:31:34.126Z,48.17773
2023-06-27T01:32:34.055Z,47.95605
2023-06-27T01:33:42.875Z,48.33691
2023-06-27T01:34:33.092Z,48.43066
2023-06-27T01:35:33.133Z,47.98047
2023-06-27T01:36:35.287Z,48.18848
2023-06-27T01:37:34.019Z,47.93457
2023-06-27T01:38:34.064Z,47.83984
2023-06-27T01:39:33.071Z,48.11719
2023-06-27T01:40:33.097Z,48.12793
2023-06-27T01:41:34.113Z,47.94336
2023-06-27T01:42:34.090Z,47.91992
2023-06-27T01:43:34.105Z,48.08984
2023-06-27T01:44:33.124Z,48.26465
2023-06-27T01:45:33.063Z,47.89453
2023-06-27T01:46:34.215Z,47.92969
2023-06-27T01:47:34.077Z,48.00879
2023-06-27T01:48:34.120Z,47.81055
2023-06-27T01:49:33.107Z,47.92871
2023-06-27T01:50:34.109Z,48.33203
2023-06-27T01:51:33.120Z,47.76465
2023-06-27T01:52:34.099Z,47.72852
2023-06-27T01:53:34.072Z,48.04883
2023-06-27T01:54:33.100Z,48.20117
2023-06-27T01:55:34.181Z,47.92383
2023-06-27T01:56:33.076Z,47.88965
2023-06-27T01:57:34.137Z,47.62305
2023-06-27T01:58:34.137Z,47.8877
2023-06-27T01:59:33.104Z,48.19922
2023-06-27T02:00:34.079Z,48.12891
2023-06-27T02:01:33.181Z,48.11719
2023-06-27T02:02:36.584Z,48.01465
2023-06-27T02:03:33.136Z,48.08008
2023-06-27T02:04:33.091Z,48.08203
2023-06-27T02:05:34.083Z,47.93262
2023-06-27T02:06:33.141Z,47.68848
2023-06-27T02:07:34.112Z,47.6543
2023-06-27T02:08:33.101Z,47.8125
2023-06-27T02:09:33.154Z,47.97461
2023-06-27T02:10:34.143Z,47.47461
2023-06-27T02:11:33.153Z,47.76563
2023-06-27T02:12:34.183Z,47.71973
2023-06-27T02:13:33.119Z,47.64551
2023-06-27T02:14:33.171Z,47.91309
2023-06-27T02:15:34.172Z,48.16602
2023-06-27T02:16:33.113Z,47.97949
2023-06-27T02:17:34.157Z,47.93359
2023-06-27T02:18:33.118Z,47.87012
2023-06-27T02:19:34.165Z,47.89355
2023-06-27T02:20:33.183Z,47.91699
2023-06-27T02:21:33.139Z,48.06934
2023-06-27T02:22:34.130Z,47.98828
2023-06-27T02:23:33.172Z,47.9502
2023-06-27T02:24:34.166Z,47.68359
2023-06-27T02:25:33.177Z,47.58008
2023-06-27T02:26:33.185Z,47.71973
2023-06-27T02:27:34.181Z,47.70313
2023-06-27T02:28:33.579Z,48.09375
2023-06-27T02:29:34.218Z,48.37207
2023-06-27T02:30:33.220Z,48.11914
2023-06-27T02:31:51.533Z,48.27148
2023-06-27T02:32:34.264Z,48.26855
2023-06-27T02:33:33.162Z,48.14844
2023-06-27T02:34:34.225Z,48.75977
2023-06-27T02:35:33.243Z,47.74316
2023-06-27T02:36:34.244Z,48.24121
2023-06-27T02:37:34.190Z,48.55469
2023-06-27T02:38:33.207Z,48.81934
2023-06-27T02:39:34.188Z,48.77441
2023-06-27T02:40:33.168Z,48.27734
2023-06-27T02:41:34.255Z,48.625
2023-06-27T02:42:34.223Z,49.64355
2023-06-27T02:43:33.230Z,48.79688
2023-06-27T02:44:34.224Z,48.95898
2023-06-27T02:45:33.186Z,49.21387
2023-06-27T02:46:34.305Z,49.09961
2023-06-27T02:47:34.539Z,48.9375
2023-06-27T02:48:34.226Z,49.03809
2023-06-27T02:49:33.240Z,48.75781
2023-06-27T02:50:33.196Z,48.86426
2023-06-27T02:51:34.261Z,48.61035
2023-06-27T02:52:34.994Z,48.42188
2023-06-27T02:53:34.205Z,48.16406
2023-06-27T02:54:33.242Z,48.73242
2023-06-27T02:55:33.249Z,48.83789
2023-06-27T02:56:34.253Z,49.0459
2023-06-27T02:57:35.382Z,49.30078
2023-06-27T02:58:34.276Z,49.45996
2023-06-27T02:59:33.262Z,49.51758
2023-06-27T03:00:36.651Z,49.77441
2023-06-27T03:01:33.320Z,49.49609
2023-06-27T03:02:36.121Z,49.41602
2023-06-27T03:03:34.876Z,48.92773
2023-06-27T03:04:33.301Z,49.38086
2023-06-27T03:05:34.221Z,49.20703
2023-06-27T03:06:33.223Z,49.05957
2023-06-27T03:07:36.357Z,48.94434
2023-06-27T03:08:34.297Z,48.91797
2023-06-27T03:09:33.293Z,48.79199
2023-06-27T03:10:34.237Z,48.87305
2023-06-27T03:11:33.240Z,48.92969
2023-06-27T03:12:33.293Z,49.24121
2023-06-27T03:13:34.328Z,49.46973
2023-06-27T03:14:33.261Z,49.3418
2023-06-27T03:15:34.304Z,49.33301
2023-06-27T03:16:33.251Z,49.41406
2023-06-27T03:17:34.341Z,49.4248
2023-06-27T03:18:34.262Z,49.52637
2023-06-27T03:19:44.019Z,49.17969
2023-06-27T03:20:34.334Z,49.88574
2023-06-27T03:21:33.314Z,49.38867
2023-06-27T03:22:34.276Z,49.40137
2023-06-27T03:23:34.281Z,49.35254
2023-06-27T03:24:33.307Z,49.40039
2023-06-27T03:25:34.338Z,49.25195
2023-06-27T03:26:33.322Z,49.44629
2023-06-27T03:27:34.316Z,49.79492
2023-06-27T03:28:34.317Z,49.24805
2023-06-27T03:29:36.737Z,49.50293
2023-06-27T03:30:33.361Z,49.26074
2023-06-27T03:31:33.365Z,49.43457
2023-06-27T03:32:34.423Z,49.67871
2023-06-27T03:33:34.332Z,50.19434
2023-06-27T03:34:34.337Z,49.86035
2023-06-27T03:35:33.336Z,49.79199
2023-06-27T03:36:33.346Z,49.76953
2023-06-27T03:37:34.334Z,49.71191
2023-06-27T03:38:34.357Z,49.87109
2023-06-27T03:39:34.309Z,49.97656
2023-06-27T03:40:33.366Z,49.84082
2023-06-27T03:41:33.312Z,49.91016
2023-06-27T03:42:34.392Z,49.8418
2023-06-27T03:43:34.415Z,49.87305
2023-06-27T03:44:34.363Z,50.40527
2023-06-27T03:45:33.425Z,50.26855
2023-06-27T03:46:34.359Z,49.8877
2023-06-27T03:47:33.425Z,49.87695
2023-06-27T03:48:34.341Z,49.57324
2023-06-27T03:49:34.359Z,49.53809
2023-06-27T03:50:33.419Z,50.08203
2023-06-27T03:51:34.388Z,50.25586
2023-06-27T03:52:33.332Z,50.31543
2023-06-27T03:53:34.373Z,50.45215
2023-06-27T03:54:34.356Z,50.45215
2023-06-27T03:55:33.384Z,50.38574
2023-06-27T03:56:34.343Z,50.46582
2023-06-27T03:57:33.406Z,50.00195
2023-06-27T03:58:40.739Z,50.12891
2023-06-27T03:59:33.396Z,50.13086
2023-06-27T04:00:33.408Z,50.11914
2023-06-27T04:01:34.348Z,50.4082
2023-06-27T04:02:33.420Z,50.26758
2023-06-27T04:03:34.516Z,50.20898
2023-06-27T04:04:33.450Z,49.83789
2023-06-27T04:05:33.374Z,49.96777
2023-06-27T04:06:34.399Z,49.92285
2023-06-27T04:07:33.558Z,49.87598
2023-06-27T04:08:34.366Z,50.25391
2023-06-27T04:09:33.368Z,49.89648
2023-06-27T04:10:33.420Z,49.66504
2023-06-27T04:11:34.418Z,50.19727
2023-06-27T04:12:33.495Z,50.69336
2023-06-27T04:13:34.389Z,50.50586
2023-06-27T04:14:33.454Z,50.21387
2023-06-27T04:15:34.393Z,50.45703
2023-06-27T04:16:33.449Z,50.38867
2023-06-27T04:17:33.656Z,50.89746
2023-06-27T04:18:34.433Z,50.34863
2023-06-27T04:19:33.454Z,49.9834
2023-06-27T04:20:34.440Z,50.07617
2023-06-27T04:21:33.453Z,50.04297
2023-06-27T04:22:33.448Z,50.48242
2023-06-27T04:23:34.444Z,50.51367
2023-06-27T04:24:33.453Z,50.57227
2023-06-27T04:25:34.448Z,50.30957
2023-06-27T04:26:33.419Z,50.45703
2023-06-27T04:27:36.832Z,51.19727
2023-06-27T04:28:34.470Z,50.69727
2023-06-27T04:29:33.460Z,50.52441
2023-06-27T04:30:34.482Z,50.75781
2023-06-27T04:31:33.470Z,51.03613
2023-06-27T04:32:34.596Z,50.94434
2023-06-27T04:33:34.507Z,50.82715
2023-06-27T04:34:33.474Z,50.79297
2023-06-27T04:35:34.440Z,50.85059
2023-06-27T04:36:33.480Z,50.93457
2023-06-27T04:37:34.490Z,50.93652
2023-06-27T04:38:34.532Z,51.09668
2023-06-27T04:39:33.450Z,51.09082
2023-06-27T04:40:34.553Z,50.76563
2023-06-27T04:41:33.446Z,50.74609
2023-06-27T04:42:34.456Z,50.92969
2023-06-27T04:43:36.930Z,51.00781
2023-06-27T04:44:35.850Z,50.8252
2023-06-27T04:45:33.505Z,50.77051
2023-06-27T04:46:33.506Z,50.93066
2023-06-27T04:47:34.568Z,50.60254
2023-06-27T04:48:34.543Z,50.40625
2023-06-27T04:49:34.507Z,50.47363
2023-06-27T04:50:33.512Z,50.47656
2023-06-27T04:51:33.509Z,50.50293
2023-06-27T04:52:34.475Z,50.45801
2023-06-27T04:53:34.558Z,50.67969
2023-06-27T04:54:34.522Z,50.82129
2023-06-27T04:55:33.489Z,50.54883
2023-06-27T04:56:36.851Z,50.47754
2023-06-27T04:57:33.524Z,50.24707
2023-06-27T04:58:34.538Z,50.62695
2023-06-27T04:59:34.538Z,50.99707
2023-06-27T05:00:33.596Z,50.80371
2023-06-27T05:01:34.521Z,51.00098
2023-06-27T05:02:39.160Z,50.88281
2023-06-27T05:03:34.552Z,50.83301
2023-06-27T05:04:34.536Z,51.00195
2023-06-27T05:05:33.510Z,50.87891
2023-06-27T05:06:34.597Z,51.08594
2023-06-27T05:07:33.610Z,50.76367
2023-06-27T05:08:34.588Z,50.70117
2023-06-27T05:09:34.514Z,50.83105
2023-06-27T05:10:33.514Z,51.00684
2023-06-27T05:11:34.553Z,51.10254
2023-06-27T05:12:33.566Z,51.13574
2023-06-27T05:13:34.568Z,51.26953
2023-06-27T05:14:33.563Z,51.16504
2023-06-27T05:15:33.583Z,51.02148
2023-06-27T05:16:34.591Z,51.16016
2023-06-27T05:17:33.557Z,51.18555
2023-06-27T05:18:34.562Z,51.19043
2023-06-27T05:19:33.572Z,51.24121
2023-06-27T05:20:33.604Z,51.32422
2023-06-27T05:21:34.583Z,51.36719
2023-06-27T05:22:33.543Z,51.58789
2023-06-27T05:23:35.719Z,51.16895
2023-06-27T05:24:33.588Z,51.24023
2023-06-27T05:25:37.307Z,50.90625
2023-06-27T05:26:33.590Z,51.22949
2023-06-27T05:27:33.598Z,51.55566
2023-06-27T05:28:34.640Z,51.31836
2023-06-27T05:29:33.617Z,51.49316
2023-06-27T05:30:34.659Z,51.16113
2023-06-27T05:31:33.555Z,51.25488
2023-06-27T05:32:33.631Z,51.47656
2023-06-27T05:33:34.655Z,51.41504
2023-06-27T05:34:33.570Z,51.58887
2023-06-27T05:35:34.594Z,51.87012
2023-06-27T05:36:33.574Z,51.76758
2023-06-27T05:37:33.643Z,51.71387
2023-06-27T05:38:34.634Z,51.73535
2023-06-27T05:39:33.576Z,51.43652
2023-06-27T05:40:34.595Z,51.40332
2023-06-27T05:41:33.636Z,51.58887
2023-06-27T05:42:34.590Z,51.29297
2023-06-27T05:43:34.640Z,51.5332
2023-06-27T05:44:33.633Z,51.53516
2023-06-27T05:45:34.602Z,51.21875
2023-06-27T05:46:33.644Z,50.99609
2023-06-27T05:47:34.728Z,51.00586
2023-06-27T05:48:34.676Z,51.10547
2023-06-27T05:49:33.647Z,51.12109
2023-06-27T05:50:34.793Z,51.29492
2023-06-27T05:51:33.628Z,51.21484
2023-06-27T05:52:34.662Z,51.14551
2023-06-27T05:53:34.661Z,51.31543
2023-06-27T05:54:37.031Z,51.3623
2023-06-27T05:55:33.661Z,51.21094
2023-06-27T05:56:33.669Z,51.00488
2023-06-27T05:57:34.629Z,50.62793
2023-06-27T05:58:34.698Z,51.08594
2023-06-27T05:59:34.664Z,51.19141
2023-06-27T06:00:33.683Z,51.1709
2023-06-27T06:01:33.750Z,51.34668
2023-06-27T06:02:35.249Z,51.58008
2023-06-27T06:03:34.910Z,51.33203
2023-06-27T06:04:34.685Z,51.3623
2023-06-27T06:05:33.702Z,51.23828
2023-06-27T06:06:33.661Z,51.36914
2023-06-27T06:07:34.667Z,51.3252
2023-06-27T06:08:34.682Z,51.37012
2023-06-27T06:09:34.657Z,51.23047
2023-06-27T06:10:33.695Z,51.20996
2023-06-27T06:11:34.665Z,51.12891
2023-06-27T06:12:33.691Z,51.24902
2023-06-27T06:13:34.699Z,51.7207
2023-06-27T06:14:34.707Z,51.5752
2023-06-27T06:15:33.733Z,51.43848
2023-06-27T06:16:34.728Z,51.73047
2023-06-27T06:17:33.702Z,51.5166
2023-06-27T06:18:34.707Z,51.82813
2023-06-27T06:19:34.717Z,52.17969
2023-06-27T06:20:33.740Z,52.18652
2023-06-27T06:21:34.720Z,52.23633
2023-06-27T06:22:33.727Z,51.46191
2023-06-27T06:23:37.114Z,51.43555
2023-06-27T06:24:33.685Z,51.84375
2023-06-27T06:25:33.742Z,51.09766
2023-06-27T06:26:34.706Z,50.63379
2023-06-27T06:27:33.746Z,50.93945
2023-06-27T06:28:34.821Z,50.86621
2023-06-27T06:29:33.697Z,50.72949
2023-06-27T06:30:33.750Z,51.27734
2023-06-27T06:31:34.789Z,50.94434
2023-06-27T06:32:35.512Z,51.11426
2023-06-27T06:33:34.756Z,51.28516
2023-06-27T06:34:33.749Z,51.01855
2023-06-27T06:35:33.748Z,51.25684
2023-06-27T06:36:34.726Z,51.22559
2023-06-27T06:37:33.790Z,50.60547
2023-06-27T06:38:35.017Z,50.88086
2023-06-27T06:39:33.723Z,51
2023-06-27T06:40:36.062Z,51.10059
2023-06-27T06:41:33.870Z,50.83789
2023-06-27T06:42:33.761Z,50.77051
2023-06-27T06:43:34.727Z,51.10059
2023-06-27T06:44:33.779Z,50.90723
2023-06-27T06:45:34.768Z,50.99414
2023-06-27T06:46:33.868Z,50.69727
2023-06-27T06:47:33.791Z,50.57617
2023-06-27T06:48:34.837Z,50.83008
2023-06-27T06:49:33.864Z,50.97656
2023-06-27T06:50:34.802Z,51.07715
2023-06-27T06:51:33.754Z,51.29297
2023-06-27T06:52:37.214Z,50.62598
2023-06-27T06:53:34.825Z,50.98438
2023-06-27T06:54:33.804Z,50.86133
2023-06-27T06:55:34.799Z,51.00781
2023-06-27T06:56:33.809Z,50.66602
2023-06-27T06:57:34.808Z,50.38672
2023-06-27T06:58:34.795Z,50.80273
2023-06-27T06:59:33.800Z,50.81934
2023-06-27T07:00:34.823Z,51.11621
2023-06-27T07:01:33.882Z,50.76074
2023-06-27T07:02:34.922Z,50.68066
2023-06-27T07:03:34.881Z,50.35547
2023-06-27T07:04:33.951Z,50.21582
2023-06-27T07:05:34.828Z,49.76367
2023-06-27T07:06:33.834Z,50.26563
2023-06-27T07:07:34.806Z,49.88672
2023-06-27T07:08:34.824Z,50.2334
2023-06-27T07:09:34.794Z,50.20117
2023-06-27T07:10:33.839Z,50.27734
2023-06-27T07:11:33.837Z,50.94531
2023-06-27T07:12:34.820Z,50.7666
2023-06-27T07:13:34.826Z,50.40625
2023-06-27T07:14:34.811Z,50.7373
2023-06-27T07:15:34.042Z,50.7334
2023-06-27T07:16:33.816Z,50.47363
2023-06-27T07:17:34.868Z,49.875
2023-06-27T07:18:34.887Z,49.99316
2023-06-27T07:19:34.819Z,50.28906
2023-06-27T07:20:33.814Z,49.19922
2023-06-27T07:21:37.270Z,49.99707
2023-06-27T07:22:33.824Z,50.08398
2023-06-27T07:23:34.904Z,50.14258
2023-06-27T07:24:34.878Z,50.31055
2023-06-27T07:25:33.863Z,50.00293
2023-06-27T07:26:34.820Z,49.97363
2023-06-27T07:27:33.882Z,49.60645
2023-06-27T07:28:50.106Z,49.88379
2023-06-27T07:29:34.853Z,49.71289
2023-06-27T07:30:33.845Z,49.80371
2023-06-27T07:31:35.117Z,49.60156
2023-06-27T07:32:33.885Z,49.24414
2023-06-27T07:33:34.911Z,49.54785
2023-06-27T07:34:34.861Z,48.80273
2023-06-27T07:35:33.914Z,48.93945
2023-06-27T07:36:34.915Z,48.56836
2023-06-27T07:37:33.913Z,48.52148
2023-06-27T07:38:34.873Z,48.52539
2023-06-27T07:39:33.905Z,48.70508
2023-06-27T07:40:33.863Z,48.31445
2023-06-27T07:41:34.927Z,48.51563
2023-06-27T07:42:33.859Z,48.77441
2023-06-27T07:43:34.902Z,48.9375
2023-06-27T07:44:33.886Z,48.83496
2023-06-27T07:45:35.329Z,49.14355
2023-06-27T07:46:34.865Z,48.49609
2023-06-27T07:47:33.963Z,48.41406
2023-06-27T07:48:34.873Z,48.80273
2023-06-27T07:49:33.929Z,48.5957
2023-06-27T07:50:37.285Z,48.9834
2023-06-27T07:51:33.929Z,49.06055
2023-06-27T07:52:33.935Z,48.42383
2023-06-27T07:53:34.897Z,48.60938
2023-06-27T07:54:33.929Z,48.02734
2023-06-27T07:55:37.538Z,48.59473
2023-06-27T07:56:33.956Z,47.72168
2023-06-27T07:57:33.949Z,48.84961
2023-06-27T07:58:34.952Z,48.01855
2023-06-27T07:59:33.959Z,48.13574
2023-06-27T08:00:35.002Z,48.15039
2023-06-27T08:01:33.981Z,48.23828
2023-06-27T08:02:33.951Z,47.23633
2023-06-27T08:03:35.046Z,47.74707
2023-06-27T08:04:33.921Z,47.95996
2023-06-27T08:05:34.962Z,47.96777
2023-06-27T08:06:33.932Z,47.35547
2023-06-27T08:07:35.035Z,47.51563
2023-06-27T08:08:34.970Z,47.5752
2023-06-27T08:09:33.999Z,47.56738
2023-06-27T08:10:34.934Z,47.26074
2023-06-27T08:11:33.928Z,46.91113
2023-06-27T08:12:35.093Z,47.32227
2023-06-27T08:13:34.980Z,47.01855
2023-06-27T08:14:33.957Z,46.90723
2023-06-27T08:15:34.942Z,46.77051
2023-06-27T08:16:33.984Z,47.00098
2023-06-27T08:17:35.093Z,47.22754
2023-06-27T08:18:34.993Z,46.95801
2023-06-27T08:19:37.356Z,46.66602
2023-06-27T08:20:33.983Z,46.79004
2023-06-27T08:21:33.964Z,46.26855
2023-06-27T08:22:35.081Z,46.90625
2023-06-27T08:23:34.967Z,46.41406
2023-06-27T08:24:35.016Z,46.74902
2023-06-27T08:25:34.028Z,46.2998
2023-06-27T08:26:33.977Z,46.92676
2023-06-27T08:27:35.039Z,46.4707
2023-06-27T08:28:35.020Z,46.50781
2023-06-27T08:29:35.019Z,46.62598
2023-06-27T08:30:34.091Z,46.35059
2023-06-27T08:31:34.103Z,46.28125
2023-06-27T08:32:35.224Z,46.76465
2023-06-27T08:33:34.988Z,46.24902
2023-06-27T08:34:34.995Z,46.29395
2023-06-27T08:35:33.989Z,46.38086
2023-06-27T08:36:35.067Z,45.43555
2023-06-27T08:37:34.006Z,45.62598
2023-06-27T08:38:35.000Z,44.91602
2023-06-27T08:39:35.040Z,44.85547
2023-06-27T08:40:34.051Z,44.90234
2023-06-27T08:41:35.058Z,44.26172
2023-06-27T08:42:34.138Z,44.87109
2023-06-27T08:43:35.061Z,44.63672
2023-06-27T08:44:35.052Z,44.9707
2023-06-27T08:45:34.060Z,45.39355
2023-06-27T08:46:35.069Z,45.20313
2023-06-27T08:47:34.096Z,45.30371
2023-06-27T08:48:38.016Z,45.20703
2023-06-27T08:49:34.061Z,45.2832
2023-06-27T08:50:34.068Z,45.56836
2023-06-27T08:51:37.970Z,45.31641
2023-06-27T08:52:34.026Z,45.28711
2023-06-27T08:53:35.041Z,44.14551
2023-06-27T08:54:34.033Z,43.92871
2023-06-27T08:55:34.085Z,44.33008
2023-06-27T08:56:35.114Z,43.83789
2023-06-27T08:57:34.098Z,43.87695
2023-06-27T08:58:35.108Z,44.36035
2023-06-27T08:59:34.147Z,43.44629
2023-06-27T09:00:34.066Z,44.26855
2023-06-27T09:01:35.172Z,44.40234
2023-06-27T09:02:34.174Z,44.93652
2023-06-27T09:03:35.191Z,44.9248
2023-06-27T09:04:34.073Z,44.21484
2023-06-27T09:05:35.112Z,44.29395
2023-06-27T09:06:34.116Z,43.7168
2023-06-27T09:07:34.156Z,43.02051
2023-06-27T09:08:35.072Z,43.16113
2023-06-27T09:09:34.125Z,42.48145
2023-06-27T09:10:35.069Z,42.87012
2023-06-27T09:11:34.134Z,43
2023-06-27T09:12:34.103Z,42.89551
2023-06-27T09:13:35.154Z,42.5791
2023-06-27T09:14:34.140Z,42.26953
2023-06-27T09:15:35.155Z,42.97949
2023-06-27T09:16:34.208Z,43.31348
2023-06-27T09:17:41.884Z,42.74902
2023-06-27T09:18:35.101Z,42.50586
2023-06-27T09:19:34.195Z,42.30176
2023-06-27T09:20:35.147Z,41.78711
2023-06-27T09:21:34.159Z,42.13281
2023-06-27T09:22:35.115Z,41.96875
2023-06-27T09:23:35.247Z,41.57324
2023-06-27T09:24:34.124Z,41.43945
2023-06-27T09:25:35.145Z,41.5166
2023-06-27T09:26:34.171Z,41.56543
2023-06-27T09:27:35.157Z,41.16602
2023-06-27T09:28:35.167Z,41.19922
2023-06-27T09:29:34.204Z,41.125
2023-06-27T09:30:35.176Z,40.96094
2023-06-27T09:31:34.301Z,41.14746
2023-06-27T09:32:35.155Z,41.06152
2023-06-27T09:33:35.163Z,41.23535
2023-06-27T09:34:37.053Z,41.14941
2023-06-27T09:35:59.565Z,41.56055
2023-06-27T09:39:35.152Z,42.38574
2023-06-27T09:40:34.204Z,42.6084
2023-06-27T09:41:34.160Z,42.66602
2023-06-27T09:42:35.264Z,42.41992
2023-06-27T09:43:35.214Z,42.92773
2023-06-27T09:44:35.172Z,42.20508
2023-06-27T09:45:34.206Z,42.43652
2023-06-27T09:46:37.708Z,42.36914
2023-06-27T09:47:34.270Z,42.38281
2023-06-27T09:48:35.224Z,42.1582
2023-06-27T09:49:35.171Z,42.4375
2023-06-27T09:50:34.212Z,42.09961
2023-06-27T09:51:35.205Z,42.14844
2023-06-27T09:52:34.184Z,42.10254
2023-06-27T09:53:35.255Z,42.59863
2023-06-27T09:54:35.232Z,41.24707
2023-06-27T09:55:34.201Z,43.22754
2023-06-27T09:56:35.466Z,42.05762
2023-06-27T09:57:34.246Z,42.37598
2023-06-27T09:58:35.243Z,41.88379
2023-06-27T09:59:35.784Z,42.02148
2023-06-27T10:00:34.203Z,41.81152
2023-06-27T10:01:35.278Z,41.72168
2023-06-27T10:02:34.264Z,41.54688
2023-06-27T10:03:35.310Z,41.71973
2023-06-27T10:04:40.205Z,41.45801
2023-06-27T10:05:36.476Z,41.31738
2023-06-27T10:06:35.308Z,41.28125
2023-06-27T10:07:34.267Z,40.84668
2023-06-27T10:08:38.950Z,41.19727
2023-06-27T10:09:34.236Z,41.49609
2023-06-27T10:10:34.278Z,41.36816
2023-06-27T10:11:35.274Z,41.49609
2023-06-27T10:12:34.241Z,41.66016
2023-06-27T10:13:35.245Z,41.46191
2023-06-27T10:14:34.231Z,41.3252
2023-06-27T10:15:44.103Z,41.8291
2023-06-27T10:16:34.235Z,41.80566
2023-06-27T10:17:34.328Z,42.08887
2023-06-27T10:18:35.233Z,41.62305
2023-06-27T10:19:34.286Z,42.02637
2023-06-27T10:20:35.253Z,42.08789
2023-06-27T10:21:34.290Z,42.39355
2023-06-27T10:22:34.257Z,42.32422
2023-06-27T10:23:35.281Z,42.42871
2023-06-27T10:24:34.255Z,42.80078
2023-06-27T10:25:35.264Z,42.67383
2023-06-27T10:26:34.316Z,42.58398
2023-06-27T10:27:35.545Z,42.80762
2023-06-27T10:28:41.147Z,42.31445
2023-06-27T10:29:34.315Z,42.89453
2023-06-27T10:30:37.121Z,42.60254
2023-06-27T10:31:34.275Z,42.60547
2023-06-27T10:32:41.765Z,42.22168
2023-06-27T10:33:35.313Z,42.44629
2023-06-27T10:34:34.315Z,43.30859
2023-06-27T10:35:35.361Z,42.93457
2023-06-27T10:36:35.781Z,42.50488
2023-06-27T10:37:35.608Z,42.75293
2023-06-27T10:38:35.340Z,42.125
2023-06-27T10:39:34.335Z,42.02246
2023-06-27T10:40:35.290Z,42.05957
2023-06-27T10:41:34.350Z,42.3291
2023-06-27T10:42:35.346Z,41.93262
2023-06-27T10:43:35.355Z,41.70605
2023-06-27T10:45:05.998Z,41.80566
2023-06-27T10:45:34.292Z,42.85059
2023-06-27T10:46:34.351Z,41.97363
2023-06-27T10:47:35.337Z,41.99707
2023-06-27T10:48:35.352Z,41.63574
2023-06-27T10:49:35.643Z,41.71191
2023-06-27T10:50:34.321Z,41.4209
2023-06-27T10:51:34.360Z,41.32813
2023-06-27T10:52:35.325Z,41.31445
2023-06-27T10:53:35.363Z,41.31445
2023-06-27T10:54:35.367Z,40.81543
2023-06-27T10:55:34.434Z,39.91211
2023-06-27T10:56:34.324Z,40.69824
2023-06-27T10:57:35.324Z,40.95508
2023-06-27T10:58:35.363Z,41.29297
2023-06-27T10:59:35.364Z,41.89844
2023-06-27T11:00:34.371Z,42.42969
2023-06-27T11:01:35.463Z,41.57324
2023-06-27T11:02:34.510Z,41.08203
2023-06-27T11:03:41.318Z,41.33984
2023-06-27T11:04:35.492Z,41.39551
2023-06-27T11:05:34.399Z,41.40918
2023-06-27T11:06:35.410Z,41.57129
2023-06-27T11:07:34.452Z,41.4209
2023-06-27T11:08:35.352Z,41.63965
2023-06-27T11:09:35.372Z,41.5166
2023-06-27T11:10:34.363Z,41.54395
2023-06-27T11:11:35.427Z,41.68555
2023-06-27T11:12:34.385Z,41.5459
2023-06-27T11:13:44.580Z,41.21094
2023-06-27T11:14:34.412Z,41.71289
2023-06-27T11:15:34.420Z,41.30469
2023-06-27T11:16:35.450Z,41.44727
2023-06-27T11:17:34.424Z,41.60059
2023-06-27T11:18:47.559Z,41.9043
2023-06-27T11:19:34.432Z,41.98242
2023-06-27T11:20:34.433Z,41.78516
2023-06-27T11:21:35.433Z,41.56641
2023-06-27T11:22:34.388Z,41.92188
2023-06-27T11:23:35.392Z,41.6875
2023-06-27T11:24:34.442Z,41.91602
2023-06-27T11:25:34.395Z,41.45117
2023-06-27T11:26:37.050Z,41.46484
2023-06-27T11:27:34.405Z,41.91406
2023-06-27T11:28:35.450Z,41.77344
2023-06-27T11:29:34.400Z,42.22656
2023-06-27T11:30:35.442Z,41.77246
2023-06-27T11:31:34.472Z,42.2793
2023-06-27T11:32:35.624Z,41.98633
2023-06-27T11:33:35.850Z,41.5166
2023-06-27T11:34:34.445Z,41.64063
2023-06-27T11:35:35.444Z,41.0918
2023-06-27T11:36:34.434Z,41.16309
2023-06-27T11:37:34.425Z,41.09668
2023-06-27T11:38:35.469Z,40.20996
2023-06-27T11:39:34.475Z,40.69336
2023-06-27T11:40:35.458Z,40.55566
2023-06-27T11:41:34.482Z,40.97656
2023-06-27T11:42:38.042Z,41.1084
2023-06-27T11:43:35.494Z,41.01367
2023-06-27T11:44:34.501Z,41.24316
2023-06-27T11:45:35.487Z,40.75098
2023-06-27T11:46:34.440Z,40.55176
2023-06-27T11:47:35.487Z,40.63574
2023-06-27T11:48:35.474Z,40.69629
2023-06-27T11:49:35.841Z,40.84473